Time;durP1;ratioP1;P1;durP2;ratioP2;P2;SDS_P1;SDS_P2;PMS_P1;PMS_P2;Temp;Humidity;BMP_temperature;BMP_pressure;BME280_temperature;BME280_humidity;BME280_pressure;Samples;Min_cycle;Max_cycle;Signal;HPM_P1;HPM_P2
2022/07/21 00:00:17;;;;;;;8.23;7.18;;;20.00;99.90;;;;;;5071912;28;20031;-80
2022/07/21 00:02:44;;;;;;;8.60;7.90;;;20.00;99.90;;;;;;5056408;28;20027;-78
2022/07/21 00:05:10;;;;;;;7.70;6.90;;;20.00;99.90;;;;;;5029965;28;20480;-79
2022/07/21 00:07:37;;;;;;;8.25;7.50;;;20.00;99.90;;;;;;5096724;28;20039;-78
2022/07/21 00:10:04;;;;;;;7.50;6.80;;;20.00;99.90;;;;;;5057768;28;20036;-78
2022/07/21 00:12:30;;;;;;;7.43;6.50;;;20.00;99.90;;;;;;5058144;28;20036;-78
2022/07/21 00:14:56;;;;;;;6.47;5.72;;;19.90;99.90;;;;;;5060949;28;20388;-79
2022/07/21 00:17:23;;;;;;;6.10;5.50;;;19.90;99.90;;;;;;5061069;28;20146;-78
2022/07/21 00:19:49;;;;;;;8.38;6.45;;;19.90;99.90;;;;;;5079171;28;20395;-79
2022/07/21 00:22:16;;;;;;;6.93;6.35;;;19.90;99.90;;;;;;5078535;28;20036;-78
2022/07/21 00:24:42;;;;;;;6.45;5.95;;;20.00;99.90;;;;;;5070912;28;20497;-79
2022/07/21 00:27:09;;;;;;;7.18;6.57;;;20.00;99.90;;;;;;5061181;28;20071;-79
2022/07/21 00:29:35;;;;;;;6.70;6.03;;;20.00;99.90;;;;;;5054455;28;20037;-79
2022/07/21 00:32:03;;;;;;;6.68;6.10;;;20.10;99.90;;;;;;5059999;28;20037;-78
2022/07/21 00:34:30;;;;;;;6.25;5.65;;;20.10;99.90;;;;;;5074035;28;20044;-78
2022/07/21 00:36:57;;;;;;;5.60;5.10;;;20.10;99.90;;;;;;5095171;28;20521;-78
2022/07/21 00:39:23;;;;;;;5.50;5.00;;;20.10;99.90;;;;;;5094133;28;20035;-78
2022/07/21 00:41:50;;;;;;;5.95;5.35;;;20.00;99.90;;;;;;5094264;28;20051;-78
2022/07/21 00:44:26;;;;;;;6.40;5.80;;;19.90;99.90;;;;;;5080137;28;20043;-78
2022/07/21 00:46:53;;;;;;;6.30;5.80;;;19.90;99.90;;;;;;5078606;28;20043;-78
2022/07/21 00:49:20;;;;;;;5.53;5.03;;;19.80;99.90;;;;;;5078698;28;20031;-78
2022/07/21 00:51:47;;;;;;;5.80;5.30;;;19.80;99.90;;;;;;5075709;28;20034;-78
2022/07/21 00:54:16;;;;;;;6.72;6.13;;;19.80;99.90;;;;;;5091591;28;20375;-78
2022/07/21 00:56:44;;;;;;;6.97;6.38;;;19.80;99.90;;;;;;5094737;28;20031;-78
2022/07/21 00:59:11;;;;;;;6.30;5.70;;;19.90;99.90;;;;;;5094575;28;20035;-78
2022/07/21 01:01:38;;;;;;;6.25;5.65;;;19.90;99.90;;;;;;5089195;28;20050;-78
2022/07/21 01:04:05;;;;;;;6.80;6.20;;;19.90;99.90;;;;;;5079048;28;20482;-78
2022/07/21 01:06:31;;;;;;;7.32;6.55;;;20.00;99.90;;;;;;5081983;28;20028;-78
2022/07/21 01:08:58;;;;;;;6.85;5.80;;;20.00;99.90;;;;;;5063466;28;20031;-78
2022/07/21 01:11:25;;;;;;;5.70;5.15;;;20.00;99.90;;;;;;5085912;28;20047;-78
2022/07/21 01:13:51;;;;;;;6.35;5.80;;;20.00;99.90;;;;;;5059734;28;20032;-78
2022/07/21 01:16:18;;;;;;;6.85;6.13;;;20.00;99.90;;;;;;5081007;28;20046;-78
2022/07/21 01:18:44;;;;;;;8.60;7.80;;;20.00;99.90;;;;;;5078215;28;20039;-78
2022/07/21 01:21:31;;;;;;;8.00;7.20;;;19.90;99.90;;;;;;5088595;28;20024;-78
2022/07/21 01:23:58;;;;;;;8.70;7.80;;;19.90;99.90;;;;;;5079312;28;20039;-79
2022/07/21 01:26:25;;;;;;;8.18;7.47;;;19.90;99.90;;;;;;5095805;28;20472;-79
2022/07/21 01:28:52;;;;;;;8.35;7.55;;;19.80;99.90;;;;;;5091337;28;20467;-78
2022/07/21 01:31:19;;;;;;;8.25;7.45;;;19.80;99.90;;;;;;5056665;28;20496;-78
2022/07/21 01:33:45;;;;;;;8.35;7.53;;;19.80;99.90;;;;;;5095374;28;20028;-78
2022/07/21 01:36:12;;;;;;;12.35;10.63;;;19.80;99.90;;;;;;5071694;28;20028;-78
2022/07/21 01:41:29;;;;;;;11.88;10.70;;;19.80;99.90;;;;;;5050211;28;20033;-79
2022/07/21 01:43:56;;;;;;;;;;;19.80;99.90;;;;;;5083258;28;20032;-79
2022/07/21 01:46:23;;;;;;;9.60;8.60;;;19.70;99.90;;;;;;5072853;28;19918;-79
2022/07/21 01:48:50;;;;;;;8.90;8.10;;;19.60;99.90;;;;;;5078967;28;20039;-78
2022/07/21 01:51:16;;;;;;;8.32;7.53;;;19.70;99.90;;;;;;5060671;28;20028;-78
2022/07/21 01:53:43;;;;;;;8.43;7.50;;;19.70;99.90;;;;;;5097366;28;20040;-78
2022/07/21 01:56:10;;;;;;;9.55;7.75;;;19.70;99.90;;;;;;5046358;28;20036;-78
2022/07/21 01:58:36;;;;;;;8.60;7.60;;;19.60;99.90;;;;;;5084118;28;20051;-78
2022/07/21 02:01:03;;;;;;;8.57;7.65;;;19.60;99.90;;;;;;5068545;28;20040;-78
2022/07/21 02:03:29;;;;;;;9.32;7.68;;;19.70;99.90;;;;;;5059676;28;20028;-78
2022/07/21 02:06:04;;;;;;;8.80;7.85;;;19.70;99.90;;;;;;5062916;28;20051;-78
2022/07/21 02:08:30;;;;;;;8.57;7.70;;;19.60;99.90;;;;;;5099939;28;20028;-78
2022/07/21 02:10:57;;;;;;;10.68;9.68;;;19.60;99.90;;;;;;5064097;28;20044;-78
2022/07/21 02:13:23;;;;;;;9.98;9.07;;;19.60;99.90;;;;;;5094751;28;20039;-77
2022/07/21 02:15:53;;;;;;;10.70;9.73;;;19.60;99.90;;;;;;5063300;28;20059;-77
2022/07/21 02:18:19;;;;;;;9.60;8.70;;;19.70;99.90;;;;;;5081469;28;20044;-78
2022/07/21 02:20:50;;;;;;;9.70;8.80;;;19.70;99.90;;;;;;5086291;28;20032;-78
2022/07/21 02:23:17;;;;;;;8.85;8.00;;;19.70;99.90;;;;;;5098226;28;20059;-77
2022/07/21 02:25:44;;;;;;;10.98;9.60;;;19.70;99.90;;;;;;5080332;28;20028;-78
2022/07/21 02:28:11;;;;;;;9.25;8.35;;;19.60;99.90;;;;;;5059594;28;20379;-78
2022/07/21 02:30:38;;;;;;;8.55;7.75;;;19.60;99.90;;;;;;5086363;28;20036;-77
2022/07/21 02:33:05;;;;;;;10.05;8.80;;;19.50;99.90;;;;;;5084690;28;20042;-77
2022/07/21 02:35:31;;;;;;;10.32;9.43;;;19.50;99.90;;;;;;5099717;28;20418;-77
2022/07/21 02:37:58;;;;;;;10.73;9.70;;;19.50;99.90;;;;;;5063775;28;20046;-77
2022/07/21 02:40:24;;;;;;;11.38;10.27;;;19.40;99.90;;;;;;5103673;28;20039;-77
2022/07/21 02:42:51;;;;;;;11.35;10.25;;;19.40;99.90;;;;;;5096773;28;20032;-77
2022/07/21 02:45:17;;;;;;;9.73;8.82;;;19.40;99.90;;;;;;5097671;28;20483;-77
2022/07/21 02:47:55;;;;;;;12.43;11.15;;;19.40;99.90;;;;;;5060539;28;20044;-77
2022/07/21 02:50:23;;;;;;;10.57;9.48;;;19.40;99.90;;;;;;5104335;28;20465;-78
2022/07/21 02:52:53;;;;;;;10.70;9.65;;;19.50;99.90;;;;;;5094716;28;20057;-77
2022/07/21 02:55:19;;;;;;;10.13;9.23;;;19.50;99.90;;;;;;5070362;28;20495;-77
2022/07/21 02:57:46;;;;;;;12.75;11.48;;;19.50;99.90;;;;;;5097634;28;20031;-77
2022/07/21 03:00:12;;;;;;;12.48;11.15;;;19.50;99.90;;;;;;5097438;28;20050;-77
2022/07/21 03:02:39;;;;;;;13.95;12.55;;;19.50;99.90;;;;;;5083601;28;20035;-77
2022/07/21 03:05:05;;;;;;;13.15;11.82;;;19.50;99.90;;;;;;5075616;28;20043;-77
2022/07/21 03:07:32;;;;;;;13.00;11.25;;;19.50;99.90;;;;;;5100222;28;20443;-77
2022/07/21 03:09:58;;;;;;;11.77;10.45;;;19.50;99.90;;;;;;5078909;28;20047;-77
2022/07/21 03:12:25;;;;;;;15.00;13.40;;;19.60;99.90;;;;;;5077933;28;20047;-77
2022/07/21 03:14:52;;;;;;;12.13;10.93;;;19.60;99.90;;;;;;5076185;28;20047;-77
2022/07/21 03:17:19;;;;;;;13.32;11.90;;;19.60;99.90;;;;;;5088287;28;20054;-76
2022/07/21 03:19:45;;;;;;;12.30;11.20;;;19.70;99.90;;;;;;5066261;28;20048;-78
2022/07/21 03:22:11;;;;;;;14.18;12.77;;;19.70;99.90;;;;;;5048844;28;20047;-77
2022/07/21 03:24:38;;;;;;;15.80;14.30;;;19.70;99.90;;;;;;5096585;28;20513;-77
2022/07/21 03:27:04;;;;;;;14.07;12.57;;;19.70;99.90;;;;;;5098708;28;20418;-77
2022/07/21 03:29:30;;;;;;;16.00;14.50;;;19.70;99.90;;;;;;5095627;28;20044;-76
2022/07/21 03:31:57;;;;;;;12.88;11.68;;;19.70;99.90;;;;;;5080510;28;20039;-77
2022/07/21 03:34:23;;;;;;;13.88;12.55;;;19.70;99.90;;;;;;5101680;28;20361;-77
2022/07/21 03:36:50;;;;;;;15.45;13.77;;;19.80;99.90;;;;;;5076063;28;20040;-77
2022/07/21 03:39:16;;;;;;;12.32;11.23;;;19.80;99.90;;;;;;5046869;28;20036;-77
2022/07/21 03:41:42;;;;;;;13.00;11.63;;;19.80;99.90;;;;;;5077385;28;20032;-77
2022/07/21 03:44:09;;;;;;;14.15;12.82;;;19.80;99.90;;;;;;5060388;28;20025;-77
2022/07/21 03:46:35;;;;;;;13.38;12.15;;;19.80;99.90;;;;;;5079092;28;20036;-77
2022/07/21 03:49:02;;;;;;;14.55;13.05;;;19.80;99.90;;;;;;5064790;28;20506;-77
2022/07/21 03:51:28;;;;;;;13.45;12.10;;;19.80;99.90;;;;;;5068084;28;20035;-77
2022/07/21 03:53:54;;;;;;;15.70;14.15;;;19.80;99.90;;;;;;5097574;28;20043;-77
2022/07/21 03:56:21;;;;;;;13.93;12.63;;;19.80;99.90;;;;;;5098742;28;20055;-77
2022/07/21 03:58:48;;;;;;;13.98;12.63;;;19.80;99.90;;;;;;5052015;28;20036;-77
2022/07/21 04:01:14;;;;;;;13.93;12.63;;;19.80;99.90;;;;;;5063671;28;20039;-77
2022/07/21 04:03:41;;;;;;;14.60;12.82;;;19.80;99.90;;;;;;5074717;28;20035;-77
2022/07/21 04:06:10;;;;;;;13.05;11.75;;;19.80;99.90;;;;;;5059766;28;20028;-77
2022/07/21 04:08:39;;;;;;;15.50;14.10;;;19.80;99.90;;;;;;5078119;28;20036;-77
2022/07/21 04:11:05;;;;;;;15.25;13.85;;;19.80;99.90;;;;;;5069777;28;20044;-77
2022/07/21 04:13:32;;;;;;;12.90;11.65;;;19.80;99.90;;;;;;5094582;28;20032;-77
2022/07/21 04:15:58;;;;;;;13.10;11.90;;;19.80;99.90;;;;;;5062182;28;20040;-77
2022/07/21 04:18:24;;;;;;;14.10;12.80;;;19.80;99.90;;;;;;5072502;28;20047;-77
2022/07/21 04:20:51;;;;;;;15.02;13.63;;;19.80;99.90;;;;;;5076139;28;20036;-77
2022/07/21 04:23:17;;;;;;;16.90;15.35;;;19.80;99.90;;;;;;5058870;28;20060;-77
2022/07/21 04:25:44;;;;;;;14.25;12.85;;;19.80;99.90;;;;;;5062079;28;20032;-77
2022/07/21 04:28:11;;;;;;;12.98;11.52;;;19.80;99.90;;;;;;5096084;28;20403;-77
2022/07/21 04:30:38;;;;;;;12.23;11.10;;;19.80;99.90;;;;;;5084090;28;20039;-76
2022/07/21 04:33:06;;;;;;;13.30;12.02;;;19.80;99.90;;;;;;5078473;28;20043;-76
2022/07/21 04:35:33;;;;;;;13.48;12.18;;;19.80;99.90;;;;;;5097132;28;20043;-76
2022/07/21 04:38:00;;;;;;;13.45;12.15;;;19.80;99.90;;;;;;5064991;28;20051;-77
2022/07/21 04:40:26;;;;;;;19.60;17.60;;;19.80;99.90;;;;;;5044886;28;20039;-77
2022/07/21 04:42:53;;;;;;;14.75;13.25;;;19.80;99.90;;;;;;5096414;28;20341;-77
2022/07/21 04:45:19;;;;;;;14.98;13.48;;;19.80;99.90;;;;;;5098488;28;20039;-77
2022/07/21 04:47:48;;;;;;;14.68;13.15;;;19.80;99.90;;;;;;5046094;28;20094;-77
2022/07/21 04:50:15;;;;;;;16.35;14.57;;;19.80;99.90;;;;;;5099651;28;20425;-77
2022/07/21 04:52:42;;;;;;;15.57;14.07;;;19.80;99.90;;;;;;5092640;28;20028;-77
2022/07/21 04:55:10;;;;;;;16.95;15.15;;;19.80;99.90;;;;;;5061325;28;20387;-77
2022/07/21 04:57:48;;;;;;;14.30;12.80;;;19.80;99.90;;;;;;5093527;28;20046;-77
2022/07/21 05:00:20;;;;;;;14.52;13.13;;;19.80;99.90;;;;;;5080445;28;20458;-77
2022/07/21 05:02:47;;;;;;;16.10;14.45;;;19.80;99.90;;;;;;5061657;28;20463;-77
2022/07/21 05:05:13;;;;;;;15.68;14.18;;;19.80;99.90;;;;;;5098162;28;20023;-77
2022/07/21 05:07:40;;;;;;;17.30;15.50;;;19.90;99.90;;;;;;5094116;28;20016;-77
2022/07/21 05:10:13;;;;;;;17.58;15.68;;;19.90;99.90;;;;;;5063724;28;20032;-76
2022/07/21 05:12:40;;;;;;;22.48;20.10;;;19.90;99.90;;;;;;5098964;28;20032;-76
2022/07/21 05:15:07;;;;;;;19.65;17.58;;;19.90;99.90;;;;;;5093975;28;20036;-77
2022/07/21 05:17:34;;;;;;;19.65;17.73;;;19.90;99.90;;;;;;5079820;28;20466;-77
2022/07/21 05:20:01;;;;;;;18.40;16.60;;;19.90;99.90;;;;;;5072254;28;20027;-77
2022/07/21 05:22:27;;;;;;;21.58;19.23;;;19.90;99.90;;;;;;5075284;28;20059;-77
2022/07/21 05:24:53;;;;;;;21.20;19.00;;;19.90;99.90;;;;;;5061278;28;20042;-77
2022/07/21 05:27:20;;;;;;;19.08;17.08;;;19.90;99.90;;;;;;5080164;28;20035;-77
2022/07/21 05:29:46;;;;;;;18.50;16.60;;;19.90;99.90;;;;;;5093479;28;20028;-76
2022/07/21 05:32:13;;;;;;;20.25;18.15;;;19.90;99.90;;;;;;5077484;28;20032;-78
2022/07/21 05:34:39;;;;;;;19.00;16.67;;;19.90;99.90;;;;;;5060511;28;20032;-78
2022/07/21 05:37:05;;;;;;;22.63;19.92;;;20.00;99.90;;;;;;5092307;28;20049;-78
2022/07/21 05:39:32;;;;;;;23.15;20.33;;;20.00;99.90;;;;;;5056569;28;20027;-77
2022/07/21 05:42:01;;;;;;;21.40;19.02;;;20.00;99.90;;;;;;5078088;28;20040;-77
2022/07/21 05:44:28;;;;;;;27.42;24.17;;;20.00;99.90;;;;;;5078909;28;20020;-77
2022/07/21 05:46:54;;;;;;;22.67;20.30;;;20.00;99.90;;;;;;5080074;28;20029;-77
2022/07/21 05:49:21;;;;;;;23.50;20.25;;;20.00;99.90;;;;;;5076891;28;20055;-78
2022/07/21 05:51:47;;;;;;;21.90;18.52;;;20.00;99.90;;;;;;5087707;28;20487;-77
2022/07/21 05:54:13;;;;;;;27.42;24.48;;;20.10;99.90;;;;;;5075863;28;20288;-77
2022/07/21 05:56:40;;;;;;;25.08;21.55;;;20.00;99.90;;;;;;5077460;28;20572;-77
2022/07/21 05:59:07;;;;;;;25.77;23.05;;;20.10;99.90;;;;;;5043190;28;20036;-76
2022/07/21 06:01:33;;;;;;;28.08;25.13;;;20.00;99.90;;;;;;5075105;28;20038;-76
2022/07/21 06:04:00;;;;;;;29.17;25.90;;;20.00;99.90;;;;;;5094689;28;20478;-75
2022/07/21 06:06:26;;;;;;;27.92;25.10;;;19.90;99.90;;;;;;5059599;28;20382;-75
2022/07/21 06:08:53;;;;;;;26.15;23.45;;;19.90;99.90;;;;;;5079268;28;20047;-75
2022/07/21 06:11:20;;;;;;;27.63;24.80;;;19.90;99.90;;;;;;5094074;28;20031;-74
2022/07/21 06:13:47;;;;;;;32.33;28.95;;;19.90;99.90;;;;;;5104584;28;20023;-74
2022/07/21 06:16:14;;;;;;;27.23;23.75;;;20.00;99.90;;;;;;5092079;28;20030;-74
2022/07/21 06:18:40;;;;;;;24.70;21.88;;;19.90;99.90;;;;;;5093886;28;20471;-74
2022/07/21 06:21:07;;;;;;;23.27;20.90;;;19.90;99.90;;;;;;5096921;28;20039;-74
2022/07/21 06:23:33;;;;;;;17.02;15.38;;;20.00;99.90;;;;;;5102777;28;20043;-74
2022/07/21 06:26:00;;;;;;;24.02;21.55;;;20.00;99.90;;;;;;5085109;28;20035;-74
2022/07/21 06:28:26;;;;;;;19.83;17.80;;;20.00;99.90;;;;;;5051893;28;20036;-74
2022/07/21 06:30:53;;;;;;;21.48;19.30;;;20.00;99.90;;;;;;5100784;28;20043;-76
2022/07/21 06:33:19;;;;;;;25.65;21.52;;;20.10;99.90;;;;;;5097832;28;20043;-75
2022/07/21 06:35:45;;;;;;;25.20;22.60;;;20.10;99.90;;;;;;5081503;28;20459;-75
2022/07/21 06:38:12;;;;;;;23.92;21.42;;;20.20;99.90;;;;;;5082104;28;20051;-75
2022/07/21 06:40:38;;;;;;;17.95;16.13;;;20.30;99.90;;;;;;5048653;28;20143;-75
2022/07/21 06:43:04;;;;;;;19.27;17.15;;;20.40;99.90;;;;;;5101320;28;20510;-76
2022/07/21 06:45:31;;;;;;;22.35;19.83;;;20.60;99.90;;;;;;5065065;28;20028;-75
2022/07/21 06:48:05;;;;;;;24.88;22.27;;;20.80;99.90;;;;;;5100725;28;20066;-75
2022/07/21 06:50:32;;;;;;;23.15;19.77;;;20.90;99.90;;;;;;5098526;28;20056;-76
2022/07/21 06:52:58;;;;;;;21.25;18.95;;;21.00;99.90;;;;;;5104782;28;20035;-76
2022/07/21 06:55:25;;;;;;;23.70;21.08;;;21.10;99.90;;;;;;5085638;28;20483;-75
2022/07/21 06:57:52;;;;;;;19.70;17.38;;;21.20;99.90;;;;;;5100298;28;20337;-75
2022/07/21 07:00:19;;;;;;;21.85;19.67;;;21.20;99.90;;;;;;5078762;28;20039;-76
2022/07/21 07:02:45;;;;;;;18.58;16.67;;;21.30;99.90;;;;;;5100601;28;20028;-75
2022/07/21 07:05:12;;;;;;;18.55;16.60;;;21.30;99.90;;;;;;5101659;28;20028;-75
2022/07/21 07:07:38;;;;;;;25.05;22.42;;;21.40;99.90;;;;;;5098575;28;20024;-75
2022/07/21 07:10:05;;;;;;;21.20;19.15;;;21.40;99.90;;;;;;5096940;28;20027;-75
2022/07/21 07:12:32;;;;;;;21.02;18.15;;;21.50;99.90;;;;;;5078023;28;20028;-74
2022/07/21 07:14:58;;;;;;;21.13;18.90;;;21.60;99.90;;;;;;5084271;28;20039;-75
2022/07/21 07:17:25;;;;;;;17.58;15.88;;;21.60;99.90;;;;;;5103320;28;20040;-74
2022/07/21 07:19:51;;;;;;;19.90;17.92;;;21.50;99.90;;;;;;5096534;28;20044;-75
2022/07/21 07:22:18;;;;;;;22.33;19.48;;;21.40;99.90;;;;;;5101028;28;20079;-75
2022/07/21 07:24:44;;;;;;;19.60;17.65;;;21.40;99.90;;;;;;5099254;28;20035;-75
2022/07/21 07:27:10;;;;;;;26.23;23.35;;;21.40;99.90;;;;;;5100441;28;20035;-75
2022/07/21 07:29:37;;;;;;;23.15;20.75;;;21.30;99.90;;;;;;5080535;28;20039;-76
2022/07/21 07:32:03;;;;;;;20.30;18.30;;;21.10;99.90;;;;;;5098455;28;20031;-76
2022/07/21 07:34:30;;;;;;;21.85;19.25;;;21.10;99.90;;;;;;5092465;28;20499;-76
2022/07/21 07:36:56;;;;;;;24.15;21.60;;;21.10;99.90;;;;;;5094956;28;20506;-77
2022/07/21 07:39:23;;;;;;;19.92;17.92;;;21.10;99.90;;;;;;5081748;28;20040;-76
2022/07/21 07:41:49;;;;;;;20.33;18.25;;;21.10;99.90;;;;;;5094686;28;20074;-76
2022/07/21 07:44:16;;;;;;;17.25;15.35;;;21.00;99.90;;;;;;5082450;28;20095;-77
2022/07/21 07:46:42;;;;;;;18.83;16.92;;;21.00;99.90;;;;;;5067023;28;20028;-77
2022/07/21 07:49:08;;;;;;;26.35;21.42;;;21.00;99.90;;;;;;5081304;28;20040;-76
2022/07/21 07:51:35;;;;;;;24.05;21.60;;;21.10;99.90;;;;;;5081458;28;20499;-75
2022/07/21 07:54:03;;;;;;;22.17;19.88;;;21.10;99.90;;;;;;5083108;28;20036;-76
2022/07/21 07:56:30;;;;;;;22.40;20.00;;;21.10;99.90;;;;;;5065792;28;20584;-78
2022/07/21 07:58:57;;;;;;;21.58;17.33;;;21.20;99.90;;;;;;5081688;28;20039;-76
2022/07/21 08:01:24;;;;;;;20.48;18.25;;;21.20;99.90;;;;;;5063153;28;20043;-77
2022/07/21 08:03:50;;;;;;;21.88;15.85;;;21.20;99.90;;;;;;5077435;28;20039;-77
2022/07/21 08:06:17;;;;;;;22.10;17.55;;;21.30;99.90;;;;;;5076541;28;20035;-77
2022/07/21 08:08:43;;;;;;;22.65;18.95;;;21.40;99.90;;;;;;5093353;28;20043;-76
2022/07/21 08:11:11;;;;;;;22.85;18.77;;;21.40;99.90;;;;;;5093005;28;20040;-76
2022/07/21 08:13:37;;;;;;;26.45;22.73;;;21.50;99.90;;;;;;5085373;28;20042;-77
2022/07/21 08:16:04;;;;;;;20.73;17.58;;;21.40;99.90;;;;;;5063783;28;20062;-77
2022/07/21 08:18:31;;;;;;;23.67;21.23;;;21.40;99.90;;;;;;5046328;28;20051;-76
2022/07/21 08:20:57;;;;;;;20.90;18.65;;;21.40;99.90;;;;;;5093808;28;20031;-76
2022/07/21 08:23:24;;;;;;;19.83;17.42;;;21.50;99.90;;;;;;5073065;28;20040;-76
2022/07/21 08:25:50;;;;;;;24.40;20.10;;;21.60;99.90;;;;;;5093964;28;20383;-76
2022/07/21 08:28:16;;;;;;;18.90;16.83;;;21.70;99.90;;;;;;5094958;28;20032;-76
2022/07/21 08:30:43;;;;;;;23.10;18.40;;;21.70;99.90;;;;;;5091211;28;20043;-78
2022/07/21 08:33:10;;;;;;;20.70;17.17;;;21.80;99.90;;;;;;5091257;28;20036;-76
2022/07/21 08:35:37;;;;;;;21.20;17.85;;;21.90;99.90;;;;;;5093480;28;20024;-77
2022/07/21 08:38:06;;;;;;;18.45;16.50;;;22.00;99.90;;;;;;5099586;28;20035;-78
2022/07/21 08:40:35;;;;;;;17.65;15.75;;;22.20;99.90;;;;;;5088035;28;20051;-78
2022/07/21 08:43:02;;;;;;;16.80;15.02;;;22.40;99.90;;;;;;5074055;28;20031;-78
2022/07/21 08:45:30;;;;;;;17.17;15.32;;;22.60;99.90;;;;;;5080702;28;20032;-78
2022/07/21 08:47:59;;;;;;;18.83;16.42;;;22.80;99.90;;;;;;5089929;28;20211;-79
2022/07/21 08:50:31;;;;;;;16.52;14.82;;;22.80;99.90;;;;;;5041252;28;20032;-78
2022/07/21 08:52:57;;;;;;;16.55;13.35;;;22.80;99.90;;;;;;5057594;28;20039;-78
2022/07/21 08:55:24;;;;;;;17.85;15.85;;;22.80;99.90;;;;;;5056218;28;20036;-78
2022/07/21 08:57:51;;;;;;;16.08;14.40;;;22.70;99.90;;;;;;5093500;28;20035;-79
2022/07/21 09:00:17;;;;;;;16.15;14.52;;;22.70;99.90;;;;;;5090584;28;20032;-79
2022/07/21 09:02:44;;;;;;;15.88;13.80;;;22.60;99.90;;;;;;5093478;28;20023;-79
2022/07/21 09:05:10;;;;;;;16.77;14.88;;;22.50;99.90;;;;;;5063132;28;20379;-79
2022/07/21 09:07:53;;;;;;;22.50;17.98;;;22.40;99.90;;;;;;5081124;28;20058;-79
2022/07/21 09:10:25;;;;;;;17.48;15.68;;;22.30;99.90;;;;;;5078408;28;20035;-79
2022/07/21 09:12:58;;;;;;;19.88;14.82;;;22.10;99.90;;;;;;5075651;28;20455;-79
2022/07/21 09:15:27;;;;;;;17.25;14.30;;;22.00;99.90;;;;;;5082295;28;20031;-79
2022/07/21 09:18:11;;;;;;;20.65;16.45;;;21.90;99.90;;;;;;5077112;28;20110;-82
2022/07/21 09:20:48;;;;;;;18.08;14.82;;;21.70;99.90;;;;;;5093342;28;20032;-78
2022/07/21 09:23:17;;;;;;;18.05;13.95;;;21.60;99.90;;;;;;5074832;28;20395;-82
2022/07/21 09:25:56;;;;;;;15.80;13.68;;;21.50;99.90;;;;;;5065158;28;20044;-77
2022/07/21 09:28:28;;;;;;;17.15;14.48;;;21.50;99.90;;;;;;5091319;28;20036;-78
2022/07/21 09:31:03;;;;;;;13.10;11.57;;;21.40;99.90;;;;;;5096666;28;20024;-79
2022/07/21 09:33:59;;;;;;;11.38;9.50;;;21.30;99.90;;;;;;5076040;28;20031;-79
2022/07/21 09:36:25;;;;;;;11.02;9.85;;;21.30;99.90;;;;;;5071709;28;20297;-80
2022/07/21 09:38:57;;;;;;;12.40;10.23;;;21.30;99.90;;;;;;5055985;28;20391;-81
2022/07/21 09:41:26;;;;;;;10.15;8.48;;;21.20;99.90;;;;;;5056947;28;20375;-81
2022/07/21 09:43:54;;;;;;;7.95;7.05;;;21.20;99.90;;;;;;5058179;28;20490;-80
2022/07/21 09:46:22;;;;;;;10.02;7.72;;;21.10;99.90;;;;;;5076038;28;20040;-78
2022/07/21 09:48:56;;;;;;;6.32;5.68;;;21.10;99.90;;;;;;5067427;28;20036;-77
2022/07/21 09:51:27;;;;;;;5.88;5.35;;;21.10;99.90;;;;;;5059335;28;20082;-78
2022/07/21 09:54:05;;;;;;;8.10;6.00;;;21.00;99.90;;;;;;5073864;28;20036;-79
2022/07/21 09:56:37;;;;;;;6.10;5.25;;;20.80;99.90;;;;;;5077294;28;20043;-80
2022/07/21 09:59:05;;;;;;;6.35;4.93;;;20.70;99.90;;;;;;5098387;28;20055;-81
2022/07/21 10:01:32;;;;;;;5.05;3.90;;;20.60;99.90;;;;;;5045596;28;20069;-80
2022/07/21 10:04:00;;;;;;;6.60;4.90;;;20.50;99.90;;;;;;5086672;28;20020;-80
2022/07/21 10:06:29;;;;;;;4.88;4.10;;;20.30;99.90;;;;;;5096776;28;20383;-81
2022/07/21 10:09:01;;;;;;;4.65;4.22;;;20.20;99.90;;;;;;5085082;28;20035;-80
2022/07/21 10:11:28;;;;;;;4.45;4.05;;;20.20;99.90;;;;;;5061439;28;20027;-79
2022/07/21 10:13:55;;;;;;;4.70;4.30;;;20.10;99.90;;;;;;5060980;28;20054;-79
2022/07/21 10:16:22;;;;;;;4.30;3.90;;;20.00;99.90;;;;;;5080932;28;20452;-80
2022/07/21 10:19:18;;;;;;;4.40;3.72;;;20.00;99.90;;;;;;5091226;28;20479;-79
2022/07/21 10:22:12;;;;;;;3.15;2.85;;;20.10;99.90;;;;;;5067619;28;20044;-79
2022/07/21 10:24:39;;;;;;;4.65;3.75;;;20.10;99.90;;;;;;5097386;28;20479;-79
2022/07/21 10:27:11;;;;;;;3.22;2.40;;;20.10;99.90;;;;;;5096474;28;20035;-79
2022/07/21 10:29:54;;;;;;;3.97;3.58;;;20.00;99.90;;;;;;5078292;28;20028;-79
2022/07/21 10:32:24;;;;;;;3.72;3.30;;;20.10;99.90;;;;;;5093731;28;20391;-79
2022/07/21 10:34:51;;;;;;;3.75;2.90;;;20.00;99.90;;;;;;5073385;28;20475;-79
2022/07/21 10:37:37;;;;;;;3.13;2.70;;;19.90;99.90;;;;;;5060756;28;20036;-78
2022/07/21 10:40:20;;;;;;;4.18;3.83;;;19.90;99.90;;;;;;5079910;28;20032;-82
2022/07/21 10:42:59;;;;;;;7.00;5.53;;;19.90;99.90;;;;;;5095775;28;20062;-79
2022/07/21 10:45:40;;;;;;;5.13;4.00;;;19.90;99.90;;;;;;5081019;28;20036;-80
2022/07/21 10:48:28;;;;;;;4.57;4.18;;;19.90;99.90;;;;;;5093837;28;20039;-80
2022/07/21 10:50:58;;;;;;;5.38;3.25;;;19.90;99.90;;;;;;5078512;28;20031;-81
2022/07/21 10:53:24;;;;;;;6.15;5.03;;;19.90;99.90;;;;;;5060857;28;20032;-82
2022/07/21 10:55:55;;;;;;;4.15;3.85;;;19.90;99.90;;;;;;5044699;28;20047;-82
2022/07/21 10:58:56;;;;;;;3.53;3.22;;;19.80;99.90;;;;;;5094589;28;20044;-81
2022/07/21 11:01:24;;;;;;;3.72;3.42;;;19.80;99.90;;;;;;5033020;28;20052;-82
2022/07/21 11:04:07;;;;;;;5.63;5.13;;;19.80;99.90;;;;;;5084905;28;20020;-81
2022/07/21 11:06:41;;;;;;;3.40;3.08;;;19.80;99.90;;;;;;5080319;28;20036;-80
2022/07/21 11:09:17;;;;;;;4.82;4.43;;;19.80;99.90;;;;;;5096000;28;20040;-79
2022/07/21 11:11:46;;;;;;;4.97;3.90;;;19.70;99.90;;;;;;5092561;28;20090;-81
2022/07/21 11:14:15;;;;;;;4.25;3.00;;;19.60;99.90;;;;;;5059066;28;20040;-81
2022/07/21 11:16:41;;;;;;;2.80;2.42;;;19.40;99.90;;;;;;5091521;28;20463;-81
2022/07/21 11:19:39;;;;;;;2.17;1.83;;;19.30;99.90;;;;;;5057972;28;20514;-79
2022/07/21 11:22:25;;;;;;;3.38;1.85;;;19.30;99.90;;;;;;5086602;28;20044;-79
2022/07/21 11:25:04;;;;;;;2.40;2.08;;;19.30;99.90;;;;;;5076916;28;20039;-79
2022/07/21 11:27:33;;;;;;;2.30;2.10;;;19.30;99.90;;;;;;5063007;28;20035;-79
2022/07/21 11:30:05;;;;;;;2.05;1.70;;;19.50;99.90;;;;;;5077629;28;20039;-79
2022/07/21 11:32:32;;;;;;;2.55;2.35;;;19.50;99.90;;;;;;5061242;28;20028;-78
2022/07/21 11:35:06;;;;;;;3.53;2.83;;;19.70;99.90;;;;;;5058431;28;20036;-79
2022/07/21 11:37:35;;;;;;;3.67;2.40;;;19.70;99.90;;;;;;5089629;28;21653;-79
2022/07/21 11:40:09;;;;;;;3.38;2.70;;;19.90;99.90;;;;;;5072159;28;20387;-79
2022/07/21 11:42:36;;;;;;;4.70;3.40;;;20.00;99.90;;;;;;5072991;28;20032;-81
2022/07/21 11:45:04;;;;;;;3.50;3.20;;;20.00;99.90;;;;;;5082208;28;20043;-81
2022/07/21 11:47:30;;;;;;;2.22;1.90;;;20.00;99.90;;;;;;5057658;28;20036;-79
2022/07/21 11:50:01;;;;;;;3.40;3.10;;;20.20;99.90;;;;;;5062743;28;20040;-80
2022/07/21 11:52:31;;;;;;;2.63;2.25;;;20.20;99.90;;;;;;5076301;28;20070;-79
2022/07/21 11:55:03;;;;;;;2.67;2.13;;;20.30;99.90;;;;;;5074005;28;20043;-81
2022/07/21 11:57:30;;;;;;;3.75;3.08;;;20.30;99.90;;;;;;5073921;28;20406;-79
2022/07/21 11:59:58;;;;;;;5.25;3.50;;;20.40;99.90;;;;;;5063861;28;20047;-80
2022/07/21 12:02:29;;;;;;;3.08;2.45;;;20.30;99.90;;;;;;5079696;28;20487;-81
2022/07/21 12:04:58;;;;;;;4.93;2.85;;;20.20;99.90;;;;;;5078842;28;20479;-82
2022/07/21 12:07:46;;;;;;;4.15;2.97;;;20.00;99.90;;;;;;5075558;28;20035;-78
2022/07/21 12:10:21;;;;;;;3.70;3.40;;;19.90;99.90;;;;;;5075985;28;20044;-78
2022/07/21 12:12:49;;;;;;;3.97;3.60;;;19.80;99.90;;;;;;5079331;28;20036;-77
2022/07/21 12:15:19;;;;;;;4.53;4.13;;;19.80;99.90;;;;;;5065192;28;20051;-79
2022/07/21 12:17:48;;;;;;;5.28;4.78;;;19.70;99.90;;;;;;5080887;28;20035;-78
2022/07/21 12:20:30;;;;;;;5.13;4.63;;;19.70;99.90;;;;;;5093237;28;20039;-78
2022/07/21 12:23:00;;;;;;;6.80;6.15;;;19.80;99.90;;;;;;5096735;28;20498;-77
2022/07/21 12:25:44;;;;;;;7.85;6.95;;;19.80;99.90;;;;;;5059933;28;20028;-77
2022/07/21 12:28:11;;;;;;;7.00;6.25;;;19.80;99.90;;;;;;5062538;28;20030;-77
2022/07/21 12:30:44;;;;;;;6.55;5.95;;;19.80;99.90;;;;;;5082313;28;20704;-76
2022/07/21 12:33:16;;;;;;;7.50;6.80;;;19.90;99.90;;;;;;5097491;28;20028;-76
2022/07/21 12:36:01;;;;;;;6.82;6.20;;;19.90;99.90;;;;;;5078641;28;20028;-77
2022/07/21 12:38:41;;;;;;;6.30;5.78;;;19.90;99.90;;;;;;5076629;28;20028;-76
2022/07/21 12:41:09;;;;;;;4.85;4.45;;;19.90;99.90;;;;;;5081278;28;20047;-78
2022/07/21 12:43:36;;;;;;;5.47;4.97;;;19.90;99.90;;;;;;5087136;28;20028;-78
2022/07/21 12:46:17;;;;;;;5.63;5.13;;;20.00;99.90;;;;;;5078715;28;20483;-77